createdAt,value
2023-05-15T00:02:02.578Z,22.58
2023-05-15T00:07:05.360Z,22.54
2023-05-15T00:12:10.276Z,22.51
2023-05-15T00:17:13.273Z,22.47
2023-05-15T00:22:16.061Z,22.42
2023-05-15T00:27:20.419Z,22.38
2023-05-15T00:32:23.305Z,22.33
2023-05-15T00:37:27.872Z,22.30
2023-05-15T00:42:32.385Z,22.25
2023-05-15T00:47:35.271Z,22.17
2023-05-15T00:52:38.186Z,22.16
2023-05-15T00:57:42.685Z,22.13
2023-05-15T01:02:46.261Z,22.10
2023-05-15T01:07:53.543Z,22.07
2023-05-15T01:12:57.711Z,22.05
2023-05-15T01:18:00.651Z,22.03
2023-05-15T01:23:11.964Z,21.97
2023-05-15T01:28:18.744Z,21.95
2023-05-15T01:33:24.273Z,21.94
2023-05-15T01:38:35.852Z,21.91
2023-05-15T01:43:40.955Z,21.88
2023-05-15T01:48:44.531Z,21.85
2023-05-15T01:53:47.738Z,21.82
2023-05-15T01:58:51.882Z,21.81
2023-05-15T02:03:55.458Z,21.77
2023-05-15T02:08:58.527Z,21.74
2023-05-15T02:14:02.712Z,21.72
2023-05-15T02:19:05.547Z,21.68
2023-05-15T02:24:08.495Z,21.67
2023-05-15T02:29:17.051Z,21.63
2023-05-15T02:34:25.782Z,21.60
2023-05-15T02:39:28.572Z,21.60
2023-05-15T02:44:32.749Z,21.57
2023-05-15T02:49:35.744Z,21.55
2023-05-15T02:54:38.531Z,21.53
2023-05-15T02:59:42.859Z,21.53
2023-05-15T03:04:46.465Z,21.51
2023-05-15T03:09:50.812Z,21.49
2023-05-15T03:14:54.991Z,21.49
2023-05-15T03:19:57.807Z,21.45
2023-05-15T03:25:01.883Z,21.43
2023-05-15T03:30:07.750Z,21.42
2023-05-15T03:35:11.551Z,21.39
2023-05-15T03:40:15.288Z,21.36
2023-05-15T03:45:19.480Z,21.35
2023-05-15T03:50:23.807Z,21.35
2023-05-15T03:55:26.870Z,21.33
2023-05-15T04:00:31.245Z,21.32
2023-05-15T04:05:34.047Z,21.31
2023-05-15T04:10:36.909Z,21.31
2023-05-15T04:15:41.439Z,21.29
2023-05-15T04:20:44.244Z,21.28
2023-05-15T04:25:47.300Z,21.28
2023-05-15T04:30:51.609Z,21.27
2023-05-15T04:35:54.553Z,21.28
2023-05-15T04:40:57.327Z,21.28
2023-05-15T04:46:01.476Z,21.29
2023-05-15T04:51:04.307Z,21.29
2023-05-15T04:56:07.356Z,21.31
2023-05-15T05:01:11.585Z,21.31
2023-05-15T05:06:14.368Z,21.32
2023-05-15T05:11:17.142Z,21.32
2023-05-15T05:16:21.341Z,21.33
2023-05-15T05:21:24.217Z,21.34
2023-05-15T05:26:27.560Z,21.37
2023-05-15T05:31:31.886Z,21.38
2023-05-15T05:36:36.907Z,21.41
2023-05-15T05:41:39.829Z,21.42
2023-05-15T05:46:45.247Z,21.44
2023-05-15T05:51:48.072Z,21.46
2023-05-15T05:56:50.882Z,21.48
2023-05-15T06:01:55.500Z,21.49
2023-05-15T06:06:58.434Z,21.50
2023-05-15T06:12:04.579Z,21.52
2023-05-15T06:17:09.033Z,21.55
2023-05-15T06:22:12.028Z,21.58
2023-05-15T06:27:14.937Z,21.59
2023-05-15T06:32:19.112Z,21.62
2023-05-15T06:37:22.296Z,21.62
2023-05-15T06:42:25.104Z,21.62
2023-05-15T06:47:29.323Z,21.60
2023-05-15T06:52:32.278Z,21.58
2023-05-15T06:57:35.151Z,19.98
2023-05-15T07:02:39.338Z,19.37
2023-05-15T07:07:42.737Z,19.29
2023-05-15T07:12:45.981Z,19.18
2023-05-15T07:17:50.315Z,18.66
2023-05-15T07:22:56.684Z,18.88
2023-05-15T07:27:59.776Z,18.77
2023-05-15T07:33:04.495Z,18.59
2023-05-15T07:38:08.045Z,18.66
2023-05-15T07:43:10.861Z,18.56
2023-05-15T07:48:18.367Z,18.82
2023-05-15T07:53:21.755Z,18.60
2023-05-15T07:58:24.573Z,18.91
2023-05-15T08:03:29.119Z,18.96
2023-05-15T08:08:32.020Z,19.00
2023-05-15T08:13:34.794Z,19.10
2023-05-15T08:18:38.948Z,19.16
2023-05-15T08:23:41.950Z,19.02
2023-05-15T08:28:44.936Z,18.92
2023-05-15T08:33:49.079Z,19.13
2023-05-15T08:38:51.875Z,19.22
2023-05-15T08:43:54.632Z,19.34
2023-05-15T08:48:58.807Z,19.17
2023-05-15T08:54:04.548Z,19.25
2023-05-15T08:59:07.426Z,19.37
2023-05-15T09:04:11.710Z,19.63
2023-05-15T09:09:14.536Z,19.71
2023-05-15T09:14:17.339Z,19.77
2023-05-15T09:19:22.507Z,19.73
2023-05-15T09:24:28.283Z,19.94
2023-05-15T09:29:31.179Z,20.05
2023-05-15T09:34:35.932Z,19.82
2023-05-15T09:39:41.779Z,20.12
2023-05-15T09:44:45.165Z,20.02
2023-05-15T09:49:49.344Z,20.20
2023-05-15T09:54:52.187Z,20.14
2023-05-15T09:59:55.093Z,20.15
2023-05-15T10:04:59.744Z,20.32
2023-05-15T10:10:03.525Z,20.48
2023-05-15T10:15:07.455Z,20.63
2023-05-15T10:20:12.590Z,20.76
2023-05-15T10:25:17.797Z,20.68
2023-05-15T10:30:20.940Z,20.79
2023-05-15T10:35:25.419Z,20.74
2023-05-15T10:40:28.314Z,20.84
2023-05-15T10:45:31.325Z,20.87
2023-05-15T10:50:37.524Z,20.90
2023-05-15T10:55:40.529Z,21.03
2023-05-15T11:00:44.065Z,21.06
2023-05-15T11:06:10.780Z,20.69
2023-05-15T11:11:55.798Z,20.60
2023-05-15T11:16:59.873Z,20.60
2023-05-15T11:22:09.734Z,20.63
2023-05-15T11:27:13.597Z,20.70
2023-05-15T11:32:56.355Z,21.14
2023-05-15T11:38:01.155Z,21.14
2023-05-15T11:43:05.570Z,21.21
2023-05-15T11:48:09.119Z,21.04
2023-05-15T11:53:13.743Z,21.37
2023-05-15T11:58:17.400Z,21.57
2023-05-15T12:03:24.966Z,21.36
2023-05-15T12:08:32.620Z,21.44
2023-05-15T12:13:35.498Z,21.51
2023-05-15T12:18:38.567Z,21.55
2023-05-15T12:23:48.721Z,21.57
2023-05-15T12:28:59.338Z,21.56
2023-05-15T12:34:02.505Z,21.57
2023-05-15T12:39:08.182Z,21.56
2023-05-15T12:44:17.321Z,21.60
2023-05-15T12:49:23.668Z,21.61
2023-05-15T12:54:27.967Z,21.40
2023-05-15T12:59:31.090Z,21.58
2023-05-15T13:09:38.399Z,21.83
2023-05-15T13:14:42.882Z,22.09
2023-05-15T13:19:45.676Z,22.39
2023-05-15T13:24:49.937Z,22.62
2023-05-15T13:29:52.809Z,22.67
2023-05-15T13:34:57.872Z,22.89
2023-05-15T13:40:02.197Z,22.91
2023-05-15T13:45:06.255Z,22.88
2023-05-15T13:50:09.948Z,22.77
2023-05-15T13:55:14.234Z,22.65
2023-05-15T14:00:18.621Z,22.77
2023-05-15T14:05:21.680Z,22.79
2023-05-15T14:10:26.490Z,22.61
2023-05-15T14:15:29.586Z,22.58
2023-05-15T14:20:32.484Z,22.59
2023-05-15T14:25:36.862Z,22.62
2023-05-15T14:30:39.792Z,22.63
2023-05-15T14:35:42.703Z,22.72
2023-05-15T14:40:47.006Z,22.86
2023-05-15T14:45:49.823Z,23.03
2023-05-15T14:50:52.717Z,23.41
2023-05-15T14:55:58.594Z,23.19
2023-05-15T15:01:02.131Z,23.12
2023-05-15T15:06:05.540Z,23.16
2023-05-15T15:11:10.365Z,23.19
2023-05-15T15:16:13.340Z,23.33
2023-05-15T15:21:16.281Z,24.05
2023-05-15T15:26:21.614Z,23.50
2023-05-15T15:31:24.456Z,23.44
2023-05-15T15:36:27.363Z,23.52
2023-05-15T15:41:32.650Z,24.98
2023-05-15T15:46:35.575Z,25.22
2023-05-15T15:51:38.461Z,24.73
2023-05-15T15:56:42.948Z,24.12
2023-05-15T16:01:46.339Z,24.46
2023-05-15T16:06:49.198Z,24.83
2023-05-15T16:11:54.670Z,25.61
2023-05-15T16:16:57.586Z,25.50
2023-05-15T16:22:00.535Z,25.70
2023-05-15T16:27:04.955Z,25.30
2023-05-15T16:32:08.402Z,25.12
2023-05-15T16:37:11.352Z,25.21
2023-05-15T16:42:15.670Z,25.24
2023-05-15T16:47:18.437Z,25.30
2023-05-15T16:52:21.463Z,25.45
2023-05-15T16:57:26.145Z,25.61
2023-05-15T17:02:29.216Z,24.94
2023-05-15T17:07:32.165Z,24.46
2023-05-15T17:12:36.409Z,24.19
2023-05-15T17:17:39.498Z,24.10
2023-05-15T17:22:42.467Z,23.93
2023-05-15T17:27:46.999Z,23.84
2023-05-15T17:32:50.000Z,23.75
2023-05-15T17:37:53.142Z,23.69
2023-05-15T17:42:57.359Z,23.63
2023-05-15T17:48:03.681Z,23.62
2023-05-15T17:53:06.764Z,23.57
2023-05-15T17:58:11.115Z,23.59
2023-05-15T18:03:14.052Z,23.61
2023-05-15T18:08:17.036Z,23.50
2023-05-15T18:13:21.325Z,23.47
2023-05-15T18:18:24.402Z,23.44
2023-05-15T18:23:27.564Z,23.41
2023-05-15T18:28:32.755Z,23.36
2023-05-15T18:33:35.792Z,23.35
2023-05-15T18:38:38.968Z,23.36
2023-05-15T18:43:43.334Z,23.36
2023-05-15T18:48:46.212Z,23.37
2023-05-15T18:53:49.071Z,23.37
2023-05-15T18:58:54.706Z,23.34
2023-05-15T19:03:57.765Z,23.31
2023-05-15T19:09:00.647Z,23.29
2023-05-15T19:14:05.216Z,23.30
2023-05-15T19:19:08.443Z,23.31
2023-05-15T19:24:11.745Z,23.35
2023-05-15T19:29:15.971Z,23.35
2023-05-15T19:34:18.982Z,23.38
2023-05-15T19:39:21.828Z,23.35
2023-05-15T19:44:26.092Z,23.37
2023-05-15T19:49:28.947Z,23.41
2023-05-15T19:54:31.765Z,23.35
2023-05-15T19:59:35.963Z,23.37
2023-05-15T20:04:38.807Z,23.38
2023-05-15T20:09:41.610Z,23.40
2023-05-15T20:14:50.602Z,23.41
2023-05-15T20:19:53.883Z,23.43
2023-05-15T20:24:56.676Z,23.44
2023-05-15T20:30:01.846Z,23.48
2023-05-15T20:35:05.223Z,23.48
2023-05-15T20:40:11.109Z,23.49
2023-05-15T20:45:15.386Z,23.48
2023-05-15T20:50:18.760Z,23.41
2023-05-15T20:55:21.684Z,23.38
2023-05-15T21:00:25.950Z,23.39
2023-05-15T21:05:29.025Z,23.39
2023-05-15T21:10:31.801Z,23.35
2023-05-15T21:15:35.961Z,23.35
2023-05-15T21:20:38.958Z,23.35
2023-05-15T21:25:43.096Z,23.35
2023-05-15T21:30:47.376Z,23.35
2023-05-15T21:35:51.244Z,23.35
2023-05-15T21:40:54.354Z,23.34
2023-05-15T21:45:58.791Z,23.34
2023-05-15T21:51:01.737Z,23.30
2023-05-15T21:56:04.934Z,23.24
2023-05-15T22:01:09.222Z,23.25
2023-05-15T22:06:12.040Z,23.22
2023-05-15T22:11:15.357Z,23.17
2023-05-15T22:16:19.626Z,23.17
2023-05-15T22:21:22.459Z,23.15
2023-05-15T22:26:25.407Z,23.11
2023-05-15T22:31:29.552Z,23.08
2023-05-15T22:36:35.041Z,23.03
2023-05-15T22:41:37.919Z,22.96
2023-05-15T22:46:42.414Z,22.89
2023-05-15T22:51:45.378Z,22.85
2023-05-15T22:56:48.230Z,22.83
2023-05-15T23:01:52.489Z,22.79
2023-05-15T23:06:55.678Z,22.76
2023-05-15T23:11:58.547Z,22.72
2023-05-15T23:17:02.782Z,22.68
2023-05-15T23:22:05.837Z,22.63
2023-05-15T23:27:08.716Z,22.59
2023-05-15T23:32:13.478Z,22.56
2023-05-15T23:37:16.653Z,22.52
2023-05-15T23:42:19.547Z,22.48
2023-05-15T23:47:23.658Z,22.45
2023-05-15T23:52:26.637Z,22.40
2023-05-15T23:57:29.444Z,22.38
